KLYO/LYO METAR and TAF weather

Enter ICAO airport designator
Station Type Date Time Source
KLYO METAR 2020/06/06 00:55 UTC NOAA

KLYO 060055Z AUTO 14008KT 10SM CLR 33/18 A2988 RMK AO2 T03260176


Station Type Date Time Source
KLYO Decoded METAR 2020/06/06 00:55 UTC NOAA

Station name not available
Jun 05, 2020 - 08:55 PM EDT / 2020.06.06 0055 UTC
Wind: from the SE (140 degrees) at 9 MPH (8 KT):0
Visibility: 10 mile(s):0
Sky conditions: clear
Temperature: 90.7 F (32.6 C)
Dew Point: 63.7 F (17.6 C)
Relative Humidity: 40%
Pressure (altimeter): 29.88 in. Hg (1011 hPa)
ob: KLYO 060055Z AUTO 14008KT 10SM CLR 33/18 A2988 RMK AO2 T03260176
cycle: 1

Station Type Date Time Source
KLYO TAF UTC NOAA

Error!

Example: see airport list